sensor_id;sensor_type;location;lat;lon;timestamp;temperature;humidity
27492;DHT22;14927;51.210;6.838;2023-12-28T00:00:13;13.50;63.50
27492;DHT22;14927;51.210;6.838;2023-12-28T00:02:58;13.50;63.80
27492;DHT22;14927;51.210;6.838;2023-12-28T00:05:42;13.50;63.90
27492;DHT22;14927;51.210;6.838;2023-12-28T00:08:27;13.50;64.00
27492;DHT22;14927;51.210;6.838;2023-12-28T00:11:11;13.50;64.00
27492;DHT22;14927;51.210;6.838;2023-12-28T00:13:56;13.60;64.00
27492;DHT22;14927;51.210;6.838;2023-12-28T00:16:41;13.60;63.90
27492;DHT22;14927;51.210;6.838;2023-12-28T00:19:25;13.60;63.80
27492;DHT22;14927;51.210;6.838;2023-12-28T00:22:10;13.70;63.80
27492;DHT22;14927;51.210;6.838;2023-12-28T00:24:55;13.70;63.70
27492;DHT22;14927;51.210;6.838;2023-12-28T00:27:39;13.80;63.80
27492;DHT22;14927;51.210;6.838;2023-12-28T00:30:24;13.80;64.50
27492;DHT22;14927;51.210;6.838;2023-12-28T00:33:09;13.90;63.70
27492;DHT22;14927;51.210;6.838;2023-12-28T00:35:53;13.80;63.70
27492;DHT22;14927;51.210;6.838;2023-12-28T00:38:38;13.90;63.80
27492;DHT22;14927;51.210;6.838;2023-12-28T00:41:22;13.80;63.80
27492;DHT22;14927;51.210;6.838;2023-12-28T00:44:07;13.90;63.90
27492;DHT22;14927;51.210;6.838;2023-12-28T00:46:53;13.80;63.90
27492;DHT22;14927;51.210;6.838;2023-12-28T00:49:38;13.90;63.90
27492;DHT22;14927;51.210;6.838;2023-12-28T00:52:22;13.90;64.00
27492;DHT22;14927;51.210;6.838;2023-12-28T00:55:07;13.90;64.10
27492;DHT22;14927;51.210;6.838;2023-12-28T00:57:52;13.90;64.20
27492;DHT22;14927;51.210;6.838;2023-12-28T01:00:36;13.90;64.20
27492;DHT22;14927;51.210;6.838;2023-12-28T01:03:21;14.10;64.30
27492;DHT22;14927;51.210;6.838;2023-12-28T01:06:06;13.90;64.20
27492;DHT22;14927;51.210;6.838;2023-12-28T01:08:50;13.90;64.40
27492;DHT22;14927;51.210;6.838;2023-12-28T01:11:35;13.90;64.40
27492;DHT22;14927;51.210;6.838;2023-12-28T01:14:20;13.90;64.50
27492;DHT22;14927;51.210;6.838;2023-12-28T01:17:05;13.90;64.60
27492;DHT22;14927;51.210;6.838;2023-12-28T01:19:50;13.90;64.70
27492;DHT22;14927;51.210;6.838;2023-12-28T01:22:34;14.00;64.90
27492;DHT22;14927;51.210;6.838;2023-12-28T01:25:19;13.90;64.90
27492;DHT22;14927;51.210;6.838;2023-12-28T01:28:04;13.90;65.00
27492;DHT22;14927;51.210;6.838;2023-12-28T01:30:48;13.90;65.00
27492;DHT22;14927;51.210;6.838;2023-12-28T01:33:33;14.10;65.10
27492;DHT22;14927;51.210;6.838;2023-12-28T01:36:18;14.00;65.00
27492;DHT22;14927;51.210;6.838;2023-12-28T01:39:03;13.90;65.00
27492;DHT22;14927;51.210;6.838;2023-12-28T01:41:48;14.00;65.10
27492;DHT22;14927;51.210;6.838;2023-12-28T01:44:32;13.90;65.00
27492;DHT22;14927;51.210;6.838;2023-12-28T01:47:18;13.90;65.00
27492;DHT22;14927;51.210;6.838;2023-12-28T01:50:03;14.00;65.10
27492;DHT22;14927;51.210;6.838;2023-12-28T01:52:50;14.00;65.00
27492;DHT22;14927;51.210;6.838;2023-12-28T01:55:35;14.00;65.00
27492;DHT22;14927;51.210;6.838;2023-12-28T01:58:20;14.00;65.00
27492;DHT22;14927;51.210;6.838;2023-12-28T02:01:05;14.00;65.10
27492;DHT22;14927;51.210;6.838;2023-12-28T02:03:49;14.00;65.00
27492;DHT22;14927;51.210;6.838;2023-12-28T02:06:34;14.00;65.00
27492;DHT22;14927;51.210;6.838;2023-12-28T02:09:19;14.10;65.10
27492;DHT22;14927;51.210;6.838;2023-12-28T02:12:04;14.20;65.20
27492;DHT22;14927;51.210;6.838;2023-12-28T02:14:49;14.00;65.00
27492;DHT22;14927;51.210;6.838;2023-12-28T02:20:29;14.00;65.00
27492;DHT22;14927;51.210;6.838;2023-12-28T02:23:15;14.00;65.00
27492;DHT22;14927;51.210;6.838;2023-12-28T02:26:00;14.10;65.10
27492;DHT22;14927;51.210;6.838;2023-12-28T02:28:45;14.00;65.90
27492;DHT22;14927;51.210;6.838;2023-12-28T02:31:39;14.10;65.30
27492;DHT22;14927;51.210;6.838;2023-12-28T02:34:33;14.00;65.20
27492;DHT22;14927;51.210;6.838;2023-12-28T02:37:19;14.00;65.20
27492;DHT22;14927;51.210;6.838;2023-12-28T02:40:05;14.10;65.20
27492;DHT22;14927;51.210;6.838;2023-12-28T02:42:50;14.10;65.20
27492;DHT22;14927;51.210;6.838;2023-12-28T02:45:35;14.10;65.20
27492;DHT22;14927;51.210;6.838;2023-12-28T02:48:21;14.10;65.30
27492;DHT22;14927;51.210;6.838;2023-12-28T02:51:06;14.10;65.30
27492;DHT22;14927;51.210;6.838;2023-12-28T02:53:51;14.10;65.30
27492;DHT22;14927;51.210;6.838;2023-12-28T02:56:36;14.10;65.30
27492;DHT22;14927;51.210;6.838;2023-12-28T02:59:20;14.10;65.30
27492;DHT22;14927;51.210;6.838;2023-12-28T03:02:05;14.10;65.30
27492;DHT22;14927;51.210;6.838;2023-12-28T03:04:50;14.10;65.30
27492;DHT22;14927;51.210;6.838;2023-12-28T03:07:35;14.10;65.40
27492;DHT22;14927;51.210;6.838;2023-12-28T03:10:20;14.10;65.40
27492;DHT22;14927;51.210;6.838;2023-12-28T03:13:05;14.10;65.40
27492;DHT22;14927;51.210;6.838;2023-12-28T03:15:50;14.10;65.40
27492;DHT22;14927;51.210;6.838;2023-12-28T03:18:34;14.20;65.60
27492;DHT22;14927;51.210;6.838;2023-12-28T03:21:19;14.10;65.40
27492;DHT22;14927;51.210;6.838;2023-12-28T03:24:04;14.20;65.60
27492;DHT22;14927;51.210;6.838;2023-12-28T03:26:48;14.10;65.40
27492;DHT22;14927;51.210;6.838;2023-12-28T03:29:33;14.20;65.50
27492;DHT22;14927;51.210;6.838;2023-12-28T03:32:18;14.20;65.50
27492;DHT22;14927;51.210;6.838;2023-12-28T03:35:03;14.30;65.50
27492;DHT22;14927;51.210;6.838;2023-12-28T03:37:48;14.20;65.40
27492;DHT22;14927;51.210;6.838;2023-12-28T03:40:32;14.20;65.50
27492;DHT22;14927;51.210;6.838;2023-12-28T03:43:17;14.30;65.50
27492;DHT22;14927;51.210;6.838;2023-12-28T03:46:02;14.20;65.40
27492;DHT22;14927;51.210;6.838;2023-12-28T03:48:46;14.20;65.50
27492;DHT22;14927;51.210;6.838;2023-12-28T03:51:31;14.20;65.40
27492;DHT22;14927;51.210;6.838;2023-12-28T03:54:16;14.20;65.40
27492;DHT22;14927;51.210;6.838;2023-12-28T03:57:01;14.20;65.30
27492;DHT22;14927;51.210;6.838;2023-12-28T03:59:45;14.20;65.30
27492;DHT22;14927;51.210;6.838;2023-12-28T04:02:31;14.20;65.20
27492;DHT22;14927;51.210;6.838;2023-12-28T04:05:16;14.20;65.20
27492;DHT22;14927;51.210;6.838;2023-12-28T04:08:00;14.30;65.30
27492;DHT22;14927;51.210;6.838;2023-12-28T04:10:45;14.20;65.10
27492;DHT22;14927;51.210;6.838;2023-12-28T04:13:29;14.20;65.80
27492;DHT22;14927;51.210;6.838;2023-12-28T04:16:15;14.30;65.10
27492;DHT22;14927;51.210;6.838;2023-12-28T04:19:00;14.30;65.00
27492;DHT22;14927;51.210;6.838;2023-12-28T04:21:44;14.20;64.80
27492;DHT22;14927;51.210;6.838;2023-12-28T04:24:29;14.20;64.80
27492;DHT22;14927;51.210;6.838;2023-12-28T04:27:14;14.20;64.80
27492;DHT22;14927;51.210;6.838;2023-12-28T04:29:58;14.20;64.70
27492;DHT22;14927;51.210;6.838;2023-12-28T04:32:43;14.20;64.70
27492;DHT22;14927;51.210;6.838;2023-12-28T04:35:28;14.40;64.70
27492;DHT22;14927;51.210;6.838;2023-12-28T04:38:12;14.20;64.60
27492;DHT22;14927;51.210;6.838;2023-12-28T04:40:58;14.20;64.60
27492;DHT22;14927;51.210;6.838;2023-12-28T04:43:43;14.20;64.60
27492;DHT22;14927;51.210;6.838;2023-12-28T04:46:28;14.20;64.50
27492;DHT22;14927;51.210;6.838;2023-12-28T04:49:13;14.20;64.50
27492;DHT22;14927;51.210;6.838;2023-12-28T04:51:57;14.20;64.40
27492;DHT22;14927;51.210;6.838;2023-12-28T04:54:42;14.20;64.40
27492;DHT22;14927;51.210;6.838;2023-12-28T04:57:26;14.20;64.40
27492;DHT22;14927;51.210;6.838;2023-12-28T05:00:12;14.20;64.40
27492;DHT22;14927;51.210;6.838;2023-12-28T05:02:56;14.20;64.30
27492;DHT22;14927;51.210;6.838;2023-12-28T05:05:41;14.30;64.30
27492;DHT22;14927;51.210;6.838;2023-12-28T05:08:26;14.30;64.20
27492;DHT22;14927;51.210;6.838;2023-12-28T05:11:10;14.30;64.10
27492;DHT22;14927;51.210;6.838;2023-12-28T05:13:55;14.20;64.00
27492;DHT22;14927;51.210;6.838;2023-12-28T05:16:40;14.30;64.00
27492;DHT22;14927;51.210;6.838;2023-12-28T05:19:24;14.30;63.80
27492;DHT22;14927;51.210;6.838;2023-12-28T05:22:09;14.30;63.70
27492;DHT22;14927;51.210;6.838;2023-12-28T05:24:54;14.20;63.60
27492;DHT22;14927;51.210;6.838;2023-12-28T05:27:39;14.40;63.70
27492;DHT22;14927;51.210;6.838;2023-12-28T05:30:24;14.20;63.50
27492;DHT22;14927;51.210;6.838;2023-12-28T05:33:08;14.30;63.60
27492;DHT22;14927;51.210;6.838;2023-12-28T05:35:53;14.30;63.50
27492;DHT22;14927;51.210;6.838;2023-12-28T05:38:38;14.30;63.50
27492;DHT22;14927;51.210;6.838;2023-12-28T05:41:22;14.30;63.40
27492;DHT22;14927;51.210;6.838;2023-12-28T05:44:07;14.20;63.30
27492;DHT22;14927;51.210;6.838;2023-12-28T05:46:52;14.30;63.30
27492;DHT22;14927;51.210;6.838;2023-12-28T05:49:37;14.30;63.30
27492;DHT22;14927;51.210;6.838;2023-12-28T05:52:22;14.30;63.10
27492;DHT22;14927;51.210;6.838;2023-12-28T05:55:07;14.30;63.10
27492;DHT22;14927;51.210;6.838;2023-12-28T05:57:52;14.30;63.00
27492;DHT22;14927;51.210;6.838;2023-12-28T06:00:36;14.30;62.90
27492;DHT22;14927;51.210;6.838;2023-12-28T06:03:21;14.30;62.80
27492;DHT22;14927;51.210;6.838;2023-12-28T06:06:05;14.50;62.80
27492;DHT22;14927;51.210;6.838;2023-12-28T06:08:50;14.30;62.60
27492;DHT22;14927;51.210;6.838;2023-12-28T06:11:35;14.40;62.60
27492;DHT22;14927;51.210;6.838;2023-12-28T06:14:20;14.40;62.50
27492;DHT22;14927;51.210;6.838;2023-12-28T06:17:04;14.40;62.40
27492;DHT22;14927;51.210;6.838;2023-12-28T06:19:49;14.40;62.30
27492;DHT22;14927;51.210;6.838;2023-12-28T06:26:33;14.40;62.00
27492;DHT22;14927;51.210;6.838;2023-12-28T06:29:18;14.40;62.00
27492;DHT22;14927;51.210;6.838;2023-12-28T06:32:03;14.40;61.90
27492;DHT22;14927;51.210;6.838;2023-12-28T06:34:48;14.40;61.90
27492;DHT22;14927;51.210;6.838;2023-12-28T06:37:33;14.40;61.90
27492;DHT22;14927;51.210;6.838;2023-12-28T06:40:17;14.40;61.90
27492;DHT22;14927;51.210;6.838;2023-12-28T06:43:02;14.50;61.90
27492;DHT22;14927;51.210;6.838;2023-12-28T06:45:49;14.40;61.80
27492;DHT22;14927;51.210;6.838;2023-12-28T06:48:35;14.40;61.70
27492;DHT22;14927;51.210;6.838;2023-12-28T06:51:21;14.40;61.80
27492;DHT22;14927;51.210;6.838;2023-12-28T06:54:06;14.40;61.80
27492;DHT22;14927;51.210;6.838;2023-12-28T06:56:51;14.50;61.80
27492;DHT22;14927;51.210;6.838;2023-12-28T06:59:35;14.40;61.60
27492;DHT22;14927;51.210;6.838;2023-12-28T07:02:20;14.50;61.60
27492;DHT22;14927;51.210;6.838;2023-12-28T07:05:05;14.50;62.40
27492;DHT22;14927;51.210;6.838;2023-12-28T07:07:49;14.40;61.40
27492;DHT22;14927;51.210;6.838;2023-12-28T07:10:34;14.50;62.20
27492;DHT22;14927;51.210;6.838;2023-12-28T07:13:20;14.70;61.40
27492;DHT22;14927;51.210;6.838;2023-12-28T07:16:04;14.50;61.20
27492;DHT22;14927;51.210;6.838;2023-12-28T07:18:51;14.50;61.20
27492;DHT22;14927;51.210;6.838;2023-12-28T07:21:36;14.50;61.10
27492;DHT22;14927;51.210;6.838;2023-12-28T07:24:20;14.50;61.10
27492;DHT22;14927;51.210;6.838;2023-12-28T07:27:10;14.50;61.10
27492;DHT22;14927;51.210;6.838;2023-12-28T07:29:57;14.50;61.00
27492;DHT22;14927;51.210;6.838;2023-12-28T07:32:42;14.50;61.00
27492;DHT22;14927;51.210;6.838;2023-12-28T07:35:27;14.50;61.00
27492;DHT22;14927;51.210;6.838;2023-12-28T07:38:12;14.50;60.90
27492;DHT22;14927;51.210;6.838;2023-12-28T07:40:56;14.50;60.90
27492;DHT22;14927;51.210;6.838;2023-12-28T07:43:41;14.50;60.80
27492;DHT22;14927;51.210;6.838;2023-12-28T07:46:26;14.50;60.70
27492;DHT22;14927;51.210;6.838;2023-12-28T07:49:11;14.50;60.70
27492;DHT22;14927;51.210;6.838;2023-12-28T07:51:55;14.60;60.70
27492;DHT22;14927;51.210;6.838;2023-12-28T07:54:40;14.50;60.60
27492;DHT22;14927;51.210;6.838;2023-12-28T07:57:25;14.50;60.60
27492;DHT22;14927;51.210;6.838;2023-12-28T08:00:12;14.50;60.50
27492;DHT22;14927;51.210;6.838;2023-12-28T08:03:01;14.60;60.40
27492;DHT22;14927;51.210;6.838;2023-12-28T08:05:49;14.40;60.10
27492;DHT22;14927;51.210;6.838;2023-12-28T08:08:43;14.60;60.20
27492;DHT22;14927;51.210;6.838;2023-12-28T08:11:28;14.60;60.20
27492;DHT22;14927;51.210;6.838;2023-12-28T08:14:13;14.60;60.10
27492;DHT22;14927;51.210;6.838;2023-12-28T08:17:04;14.80;60.20
27492;DHT22;14927;51.210;6.838;2023-12-28T08:19:49;14.60;60.00
27492;DHT22;14927;51.210;6.838;2023-12-28T08:22:36;14.60;59.90
27492;DHT22;14927;51.210;6.838;2023-12-28T08:25:21;14.60;59.90
27492;DHT22;14927;51.210;6.838;2023-12-28T08:28:06;14.60;59.90
27492;DHT22;14927;51.210;6.838;2023-12-28T08:30:55;14.60;59.90
27492;DHT22;14927;51.210;6.838;2023-12-28T08:33:46;14.60;59.80
27492;DHT22;14927;51.210;6.838;2023-12-28T08:36:31;14.60;59.80
27492;DHT22;14927;51.210;6.838;2023-12-28T08:39:15;14.70;59.80
27492;DHT22;14927;51.210;6.838;2023-12-28T08:42:00;14.60;59.70
27492;DHT22;14927;51.210;6.838;2023-12-28T08:44:45;14.60;59.70
27492;DHT22;14927;51.210;6.838;2023-12-28T08:47:29;14.60;59.80
27492;DHT22;14927;51.210;6.838;2023-12-28T08:50:14;14.80;60.00
27492;DHT22;14927;51.210;6.838;2023-12-28T08:52:59;14.50;59.80
27492;DHT22;14927;51.210;6.838;2023-12-28T08:55:44;14.60;59.80
27492;DHT22;14927;51.210;6.838;2023-12-28T08:58:28;14.80;60.60
27492;DHT22;14927;51.210;6.838;2023-12-28T09:01:20;14.70;59.80
27492;DHT22;14927;51.210;6.838;2023-12-28T09:04:08;14.60;59.50
27492;DHT22;14927;51.210;6.838;2023-12-28T09:06:58;14.60;59.50
27492;DHT22;14927;51.210;6.838;2023-12-28T09:09:46;14.70;59.50
27492;DHT22;14927;51.210;6.838;2023-12-28T09:12:30;14.70;59.60
27492;DHT22;14927;51.210;6.838;2023-12-28T09:15:15;14.70;59.60
27492;DHT22;14927;51.210;6.838;2023-12-28T09:18:00;14.70;59.60
27492;DHT22;14927;51.210;6.838;2023-12-28T09:20:45;14.70;59.60
27492;DHT22;14927;51.210;6.838;2023-12-28T09:23:31;14.70;59.50
27492;DHT22;14927;51.210;6.838;2023-12-28T09:26:16;14.80;59.60
27492;DHT22;14927;51.210;6.838;2023-12-28T09:29:00;14.90;59.60
27492;DHT22;14927;51.210;6.838;2023-12-28T09:31:45;14.80;59.50
27492;DHT22;14927;51.210;6.838;2023-12-28T09:34:30;14.80;59.50
27492;DHT22;14927;51.210;6.838;2023-12-28T09:37:15;14.80;59.50
27492;DHT22;14927;51.210;6.838;2023-12-28T09:40:04;14.80;59.50
27492;DHT22;14927;51.210;6.838;2023-12-28T09:46:01;14.80;59.50
27492;DHT22;14927;51.210;6.838;2023-12-28T09:48:46;14.80;59.60
27492;DHT22;14927;51.210;6.838;2023-12-28T09:51:31;14.90;59.60
27492;DHT22;14927;51.210;6.838;2023-12-28T09:54:16;14.90;59.50
27492;DHT22;14927;51.210;6.838;2023-12-28T09:57:02;14.90;59.40
27492;DHT22;14927;51.210;6.838;2023-12-28T09:59:47;15.00;59.40
27492;DHT22;14927;51.210;6.838;2023-12-28T10:02:33;15.00;59.20
27492;DHT22;14927;51.210;6.838;2023-12-28T10:05:18;15.00;59.10
27492;DHT22;14927;51.210;6.838;2023-12-28T10:08:03;15.10;59.00
27492;DHT22;14927;51.210;6.838;2023-12-28T10:10:47;15.10;58.90
27492;DHT22;14927;51.210;6.838;2023-12-28T10:13:38;15.10;59.50
27492;DHT22;14927;51.210;6.838;2023-12-28T10:16:22;15.20;59.10
27492;DHT22;14927;51.210;6.838;2023-12-28T10:19:09;15.20;58.90
27492;DHT22;14927;51.210;6.838;2023-12-28T10:22:24;15.20;58.80
27492;DHT22;14927;51.210;6.838;2023-12-28T10:25:09;15.20;58.70
27492;DHT22;14927;51.210;6.838;2023-12-28T10:27:55;15.20;58.70
27492;DHT22;14927;51.210;6.838;2023-12-28T10:30:39;15.20;58.60
27492;DHT22;14927;51.210;6.838;2023-12-28T10:33:27;15.30;58.40
27492;DHT22;14927;51.210;6.838;2023-12-28T10:36:12;15.50;58.40
27492;DHT22;14927;51.210;6.838;2023-12-28T10:39:15;15.30;58.20
27492;DHT22;14927;51.210;6.838;2023-12-28T10:42:16;15.30;58.00
27492;DHT22;14927;51.210;6.838;2023-12-28T10:45:32;15.40;58.00
27492;DHT22;14927;51.210;6.838;2023-12-28T10:48:28;15.40;58.10
27492;DHT22;14927;51.210;6.838;2023-12-28T10:51:15;15.40;57.80
27492;DHT22;14927;51.210;6.838;2023-12-28T10:57:36;15.50;57.40
27492;DHT22;14927;51.210;6.838;2023-12-28T11:00:26;15.50;57.60
27492;DHT22;14927;51.210;6.838;2023-12-28T11:03:20;15.50;57.50
27492;DHT22;14927;51.210;6.838;2023-12-28T11:06:28;15.50;57.20
27492;DHT22;14927;51.210;6.838;2023-12-28T11:09:13;15.60;57.10
27492;DHT22;14927;51.210;6.838;2023-12-28T11:12:11;15.60;57.40
27492;DHT22;14927;51.210;6.838;2023-12-28T11:14:56;15.60;57.20
27492;DHT22;14927;51.210;6.838;2023-12-28T11:17:44;15.60;57.20
27492;DHT22;14927;51.210;6.838;2023-12-28T11:20:29;15.60;56.90
27492;DHT22;14927;51.210;6.838;2023-12-28T11:23:14;15.70;56.70
27492;DHT22;14927;51.210;6.838;2023-12-28T11:25:58;15.70;56.60
27492;DHT22;14927;51.210;6.838;2023-12-28T11:28:43;15.70;56.50
27492;DHT22;14927;51.210;6.838;2023-12-28T11:31:27;15.70;56.30
27492;DHT22;14927;51.210;6.838;2023-12-28T11:34:13;15.80;56.30
27492;DHT22;14927;51.210;6.838;2023-12-28T11:37:12;15.80;56.20
27492;DHT22;14927;51.210;6.838;2023-12-28T11:39:58;15.70;55.90
27492;DHT22;14927;51.210;6.838;2023-12-28T11:42:53;15.80;56.10
27492;DHT22;14927;51.210;6.838;2023-12-28T11:45:38;15.80;55.70
27492;DHT22;14927;51.210;6.838;2023-12-28T11:48:27;16.00;56.00
27492;DHT22;14927;51.210;6.838;2023-12-28T11:51:12;15.80;55.70
27492;DHT22;14927;51.210;6.838;2023-12-28T11:53:56;15.90;55.90
27492;DHT22;14927;51.210;6.838;2023-12-28T11:56:42;15.90;55.80
27492;DHT22;14927;51.210;6.838;2023-12-28T11:59:27;16.00;55.70
27492;DHT22;14927;51.210;6.838;2023-12-28T12:02:12;16.00;55.60
27492;DHT22;14927;51.210;6.838;2023-12-28T12:05:02;16.10;55.60
27492;DHT22;14927;51.210;6.838;2023-12-28T12:07:49;16.20;55.30
27492;DHT22;14927;51.210;6.838;2023-12-28T12:10:34;16.20;55.20
27492;DHT22;14927;51.210;6.838;2023-12-28T12:13:19;16.20;55.00
27492;DHT22;14927;51.210;6.838;2023-12-28T12:16:05;16.30;55.00
27492;DHT22;14927;51.210;6.838;2023-12-28T12:18:50;16.30;54.80
27492;DHT22;14927;51.210;6.838;2023-12-28T12:21:35;16.30;54.80
27492;DHT22;14927;51.210;6.838;2023-12-28T12:24:20;16.40;54.60
27492;DHT22;14927;51.210;6.838;2023-12-28T12:27:05;16.40;54.50
27492;DHT22;14927;51.210;6.838;2023-12-28T12:29:49;16.40;54.40
27492;DHT22;14927;51.210;6.838;2023-12-28T12:32:35;16.40;54.40
27492;DHT22;14927;51.210;6.838;2023-12-28T12:35:27;16.40;54.20
27492;DHT22;14927;51.210;6.838;2023-12-28T12:38:13;16.40;54.20
27492;DHT22;14927;51.210;6.838;2023-12-28T12:40:58;16.40;54.20
27492;DHT22;14927;51.210;6.838;2023-12-28T12:43:42;16.50;54.30
27492;DHT22;14927;51.210;6.838;2023-12-28T12:46:27;16.40;54.20
27492;DHT22;14927;51.210;6.838;2023-12-28T12:49:12;16.40;54.10
27492;DHT22;14927;51.210;6.838;2023-12-28T12:51:57;16.40;54.10
27492;DHT22;14927;51.210;6.838;2023-12-28T12:54:41;16.40;54.00
27492;DHT22;14927;51.210;6.838;2023-12-28T12:57:26;16.40;54.00
27492;DHT22;14927;51.210;6.838;2023-12-28T13:00:11;16.40;53.90
27492;DHT22;14927;51.210;6.838;2023-12-28T13:02:59;16.40;53.80
27492;DHT22;14927;51.210;6.838;2023-12-28T13:05:44;16.40;53.70
27492;DHT22;14927;51.210;6.838;2023-12-28T13:08:29;16.40;53.80
27492;DHT22;14927;51.210;6.838;2023-12-28T13:11:13;16.40;53.70
27492;DHT22;14927;51.210;6.838;2023-12-28T13:13:58;16.40;53.60
27492;DHT22;14927;51.210;6.838;2023-12-28T13:16:42;16.40;53.50
27492;DHT22;14927;51.210;6.838;2023-12-28T13:19:27;16.40;53.50
27492;DHT22;14927;51.210;6.838;2023-12-28T13:22:11;16.50;53.60
27492;DHT22;14927;51.210;6.838;2023-12-28T13:24:56;16.40;53.60
27492;DHT22;14927;51.210;6.838;2023-12-28T13:27:41;16.40;53.50
27492;DHT22;14927;51.210;6.838;2023-12-28T13:30:26;16.40;53.50
27492;DHT22;14927;51.210;6.838;2023-12-28T13:33:13;16.30;53.50
27492;DHT22;14927;51.210;6.838;2023-12-28T13:35:58;16.40;53.50
27492;DHT22;14927;51.210;6.838;2023-12-28T13:38:43;16.40;53.40
27492;DHT22;14927;51.210;6.838;2023-12-28T13:41:27;16.30;53.40
27492;DHT22;14927;51.210;6.838;2023-12-28T13:44:12;16.30;53.40
27492;DHT22;14927;51.210;6.838;2023-12-28T13:46:57;16.30;53.40
27492;DHT22;14927;51.210;6.838;2023-12-28T13:49:41;16.30;53.20
27492;DHT22;14927;51.210;6.838;2023-12-28T13:52:27;16.30;53.20
27492;DHT22;14927;51.210;6.838;2023-12-28T13:55:12;16.40;53.70
27492;DHT22;14927;51.210;6.838;2023-12-28T13:57:56;16.40;53.00
27492;DHT22;14927;51.210;6.838;2023-12-28T14:00:41;16.30;52.90
27492;DHT22;14927;51.210;6.838;2023-12-28T14:03:25;16.30;52.90
27492;DHT22;14927;51.210;6.838;2023-12-28T14:06:10;16.20;52.80
27492;DHT22;14927;51.210;6.838;2023-12-28T14:08:55;16.20;52.90
27492;DHT22;14927;51.210;6.838;2023-12-28T14:11:41;16.30;53.00
27492;DHT22;14927;51.210;6.838;2023-12-28T14:14:26;16.30;53.00
27492;DHT22;14927;51.210;6.838;2023-12-28T14:17:10;16.20;53.00
27492;DHT22;14927;51.210;6.838;2023-12-28T14:19:55;16.20;52.90
27492;DHT22;14927;51.210;6.838;2023-12-28T14:22:40;16.20;52.80
27492;DHT22;14927;51.210;6.838;2023-12-28T14:25:26;16.20;52.90
27492;DHT22;14927;51.210;6.838;2023-12-28T14:28:11;16.20;52.90
27492;DHT22;14927;51.210;6.838;2023-12-28T14:30:56;16.10;52.80
27492;DHT22;14927;51.210;6.838;2023-12-28T14:33:41;16.10;52.90
27492;DHT22;14927;51.210;6.838;2023-12-28T14:36:36;16.10;52.90
27492;DHT22;14927;51.210;6.838;2023-12-28T14:39:21;16.10;52.70
27492;DHT22;14927;51.210;6.838;2023-12-28T14:42:06;16.10;52.90
27492;DHT22;14927;51.210;6.838;2023-12-28T14:44:51;16.10;52.90
27492;DHT22;14927;51.210;6.838;2023-12-28T14:47:35;16.10;53.00
27492;DHT22;14927;51.210;6.838;2023-12-28T14:50:20;16.00;53.00
27492;DHT22;14927;51.210;6.838;2023-12-28T14:53:05;16.00;52.90
27492;DHT22;14927;51.210;6.838;2023-12-28T14:55:49;16.00;53.00
27492;DHT22;14927;51.210;6.838;2023-12-28T14:58:34;16.00;53.10
27492;DHT22;14927;51.210;6.838;2023-12-28T15:01:19;15.90;53.00
27492;DHT22;14927;51.210;6.838;2023-12-28T15:04:06;15.90;53.10
27492;DHT22;14927;51.210;6.838;2023-12-28T15:06:51;15.90;53.10
27492;DHT22;14927;51.210;6.838;2023-12-28T15:09:36;15.90;53.10
27492;DHT22;14927;51.210;6.838;2023-12-28T15:12:21;15.90;53.10
27492;DHT22;14927;51.210;6.838;2023-12-28T15:15:06;15.80;53.10
27492;DHT22;14927;51.210;6.838;2023-12-28T15:17:51;15.80;53.10
27492;DHT22;14927;51.210;6.838;2023-12-28T15:20:36;15.80;53.20
27492;DHT22;14927;51.210;6.838;2023-12-28T15:23:21;15.80;53.20
27492;DHT22;14927;51.210;6.838;2023-12-28T15:26:06;15.70;53.20
27492;DHT22;14927;51.210;6.838;2023-12-28T15:28:51;15.70;53.20
27492;DHT22;14927;51.210;6.838;2023-12-28T15:31:35;15.70;53.30
27492;DHT22;14927;51.210;6.838;2023-12-28T15:34:20;15.70;53.30
27492;DHT22;14927;51.210;6.838;2023-12-28T15:37:05;15.70;53.30
27492;DHT22;14927;51.210;6.838;2023-12-28T15:39:50;15.60;53.30
27492;DHT22;14927;51.210;6.838;2023-12-28T15:42:34;15.60;53.30
27492;DHT22;14927;51.210;6.838;2023-12-28T15:45:19;15.50;53.30
27492;DHT22;14927;51.210;6.838;2023-12-28T15:48:04;15.50;53.40
27492;DHT22;14927;51.210;6.838;2023-12-28T15:50:48;15.50;53.40
27492;DHT22;14927;51.210;6.838;2023-12-28T15:53:33;15.50;53.50
27492;DHT22;14927;51.210;6.838;2023-12-28T15:56:18;15.50;53.60
27492;DHT22;14927;51.210;6.838;2023-12-28T15:59:02;15.50;53.70
27492;DHT22;14927;51.210;6.838;2023-12-28T16:01:47;15.50;53.70
27492;DHT22;14927;51.210;6.838;2023-12-28T16:04:32;15.50;53.70
27492;DHT22;14927;51.210;6.838;2023-12-28T16:07:16;15.50;53.80
27492;DHT22;14927;51.210;6.838;2023-12-28T16:10:01;15.50;53.80
27492;DHT22;14927;51.210;6.838;2023-12-28T16:12:45;15.50;53.90
27492;DHT22;14927;51.210;6.838;2023-12-28T16:15:30;15.40;53.90
27492;DHT22;14927;51.210;6.838;2023-12-28T16:18:15;15.40;54.00
27492;DHT22;14927;51.210;6.838;2023-12-28T16:21:00;15.40;54.10
27492;DHT22;14927;51.210;6.838;2023-12-28T16:23:45;15.40;54.20
27492;DHT22;14927;51.210;6.838;2023-12-28T16:26:29;15.40;54.30
27492;DHT22;14927;51.210;6.838;2023-12-28T16:29:14;15.40;54.40
27492;DHT22;14927;51.210;6.838;2023-12-28T16:31:58;15.40;54.40
27492;DHT22;14927;51.210;6.838;2023-12-28T16:34:45;15.50;54.50
27492;DHT22;14927;51.210;6.838;2023-12-28T16:37:29;15.40;54.40
27492;DHT22;14927;51.210;6.838;2023-12-28T16:40:14;15.40;54.50
27492;DHT22;14927;51.210;6.838;2023-12-28T16:42:58;15.40;54.50
27492;DHT22;14927;51.210;6.838;2023-12-28T16:45:43;15.30;55.10
27492;DHT22;14927;51.210;6.838;2023-12-28T16:48:27;15.30;54.60
27492;DHT22;14927;51.210;6.838;2023-12-28T16:51:12;15.30;54.60
27492;DHT22;14927;51.210;6.838;2023-12-28T16:53:57;15.30;55.30
27492;DHT22;14927;51.210;6.838;2023-12-28T16:56:41;15.20;54.80
27492;DHT22;14927;51.210;6.838;2023-12-28T16:59:26;15.20;54.90
27492;DHT22;14927;51.210;6.838;2023-12-28T17:02:11;15.20;54.90
27492;DHT22;14927;51.210;6.838;2023-12-28T17:04:55;15.20;54.90
27492;DHT22;14927;51.210;6.838;2023-12-28T17:07:40;15.20;55.00
27492;DHT22;14927;51.210;6.838;2023-12-28T17:10:25;15.20;55.00
27492;DHT22;14927;51.210;6.838;2023-12-28T17:13:10;15.20;55.10
27492;DHT22;14927;51.210;6.838;2023-12-28T17:15:56;15.20;55.10
27492;DHT22;14927;51.210;6.838;2023-12-28T17:18:43;15.20;55.10
27492;DHT22;14927;51.210;6.838;2023-12-28T17:21:30;15.10;55.80
27492;DHT22;14927;51.210;6.838;2023-12-28T17:24:18;15.10;55.10
27492;DHT22;14927;51.210;6.838;2023-12-28T17:27:09;15.10;55.30
27492;DHT22;14927;51.210;6.838;2023-12-28T17:30:01;15.10;55.00
27492;DHT22;14927;51.210;6.838;2023-12-28T17:32:47;15.10;55.00
27492;DHT22;14927;51.210;6.838;2023-12-28T17:35:36;15.10;55.00
27492;DHT22;14927;51.210;6.838;2023-12-28T17:38:21;15.00;55.00